Time,TemperatureF,DewpointF,PressureIn,WindDirection,WindDirectionDegrees,WindSpeedMPH,WindSpeedGustMPH,Humidity,HourlyPrecipIn,Conditions,Clouds,dailyrainin,SoftwareType,DateUTC
2013-02-11 00:00:00,5.2,2.5,30.34,ENE,59,0.0,0.0,88,0.00,,,0.00,meteohub,2013-02-11 05:00:00,
2013-02-11 00:02:00,5.2,2.7,30.33,East,95,0.0,0.0,89,0.00,,,0.00,meteohub,2013-02-11 05:02:00,
2013-02-11 00:03:00,5.4,2.8,30.34,East,95,0.0,0.0,89,0.00,,,0.00,meteohub,2013-02-11 05:03:00,
2013-02-11 00:08:00,5.5,3.0,30.34,East,95,0.0,1.0,89,0.00,,,0.00,meteohub,2013-02-11 05:08:00,
2013-02-11 00:11:00,5.7,3.2,30.34,East,95,0.0,1.0,89,0.00,,,0.00,meteohub,2013-02-11 05:11:00,
2013-02-11 00:16:00,5.9,2.8,30.34,East,95,0.0,1.0,87,0.00,,,0.00,meteohub,2013-02-11 05:16:00,
2013-02-11 00:21:00,5.9,2.8,30.34,East,95,0.0,0.0,87,0.00,,,0.00,meteohub,2013-02-11 05:21:00,
2013-02-11 00:26:00,6.1,3.4,30.33,East,95,0.0,0.0,88,0.00,,,0.00,meteohub,2013-02-11 05:26:00,
2013-02-11 00:31:00,6.3,3.6,30.33,East,95,0.0,0.0,88,0.00,,,0.00,meteohub,2013-02-11 05:31:00,
2013-02-11 00:36:00,6.4,3.7,30.32,East,95,0.0,0.0,88,0.00,,,0.00,meteohub,2013-02-11 05:36:00,
2013-02-11 00:41:00,6.6,3.7,30.32,East,95,0.0,1.0,88,0.00,,,0.00,meteohub,2013-02-11 05:41:00,
2013-02-11 00:46:00,6.4,3.2,30.31,East,95,0.0,1.0,86,0.00,,,0.00,meteohub,2013-02-11 05:46:00,
2013-02-11 00:51:00,6.4,3.4,30.31,East,95,0.0,1.0,87,0.00,,,0.00,meteohub,2013-02-11 05:51:00,
2013-02-11 00:56:00,6.4,3.4,30.31,East,95,0.0,0.0,87,0.00,,,0.00,meteohub,2013-02-11 05:56:00,
2013-02-11 01:01:00,6.6,3.7,30.31,East,95,0.0,0.0,88,0.00,,,0.00,meteohub,2013-02-11 06:01:00,
2013-02-11 01:06:00,6.6,3.6,30.31,East,95,0.0,0.0,87,0.00,,,0.00,meteohub,2013-02-11 06:06:00,
2013-02-11 01:11:00,6.4,3.4,30.31,East,95,0.0,0.0,87,0.00,,,0.00,meteohub,2013-02-11 06:11:00,
2013-02-11 01:16:00,6.6,3.6,30.30,East,94,0.0,1.0,87,0.00,,,0.00,meteohub,2013-02-11 06:16:00,
2013-02-11 01:21:00,6.8,3.7,30.30,East,94,0.0,1.0,87,0.00,,,0.00,meteohub,2013-02-11 06:21:00,
2013-02-11 01:27:00,6.8,3.7,30.30,East,94,0.0,1.0,87,0.00,,,0.00,meteohub,2013-02-11 06:27:00,
2013-02-11 01:32:00,6.8,3.7,30.30,East,94,0.0,0.0,87,0.00,,,0.00,meteohub,2013-02-11 06:32:00,
2013-02-11 01:37:00,6.8,3.7,30.30,East,94,0.0,0.0,87,0.00,,,0.00,meteohub,2013-02-11 06:37:00,
2013-02-11 01:42:00,6.6,3.4,30.30,East,90,0.0,1.0,86,0.00,,,0.00,meteohub,2013-02-11 06:42:00,
2013-02-11 01:47:00,6.8,3.9,30.30,East,90,0.0,1.0,88,0.00,,,0.00,meteohub,2013-02-11 06:47:00,
2013-02-11 01:52:00,7.0,4.1,30.30,East,90,0.0,1.0,88,0.00,,,0.00,meteohub,2013-02-11 06:52:00,
2013-02-11 01:57:00,7.2,4.1,30.29,East,90,0.0,0.0,87,0.00,,,0.00,meteohub,2013-02-11 06:57:00,
2013-02-11 02:02:00,7.2,3.9,30.29,East,90,0.0,0.0,86,0.00,,,0.00,meteohub,2013-02-11 07:02:00,
2013-02-11 02:07:00,7.2,4.1,30.29,East,90,0.0,0.0,87,0.00,,,0.00,meteohub,2013-02-11 07:07:00,
2013-02-11 02:12:00,7.2,4.1,30.29,East,90,0.0,0.0,87,0.00,,,0.00,meteohub,2013-02-11 07:12:00,
2013-02-11 02:17:00,7.2,3.9,30.28,East,90,0.0,0.0,86,0.00,,,0.00,meteohub,2013-02-11 07:17:00,
2013-02-11 02:22:00,7.2,4.1,30.28,East,90,0.0,0.0,87,0.00,,,0.00,meteohub,2013-02-11 07:22:00,
2013-02-11 02:27:00,7.3,4.3,30.28,East,90,0.0,0.0,87,0.00,,,0.00,meteohub,2013-02-11 07:27:00,
2013-02-11 02:32:00,7.5,4.5,30.27,East,90,0.0,0.0,87,0.00,,,0.00,meteohub,2013-02-11 07:32:00,
2013-02-11 02:37:00,7.5,4.5,30.28,East,90,0.0,0.0,87,0.00,,,0.00,meteohub,2013-02-11 07:37:00,
2013-02-11 02:42:00,7.9,5.0,30.28,East,90,0.0,0.0,88,0.00,,,0.00,meteohub,2013-02-11 07:42:00,
2013-02-11 02:47:00,8.1,5.2,30.28,East,90,0.0,0.0,88,0.00,,,0.00,meteohub,2013-02-11 07:47:00,
2013-02-11 02:52:00,8.2,5.4,30.27,NNW,339,2.0,2.0,88,0.00,,,0.00,meteohub,2013-02-11 07:52:00,
2013-02-11 02:57:00,8.4,5.4,30.27,NNW,338,0.0,3.0,87,0.00,,,0.00,meteohub,2013-02-11 07:57:00,
2013-02-11 03:02:00,8.8,5.9,30.27,ENE,70,0.0,3.0,88,0.00,,,0.00,meteohub,2013-02-11 08:02:00,
2013-02-11 03:08:00,9.0,5.9,30.26,NE,56,1.0,3.0,87,0.00,,,0.00,meteohub,2013-02-11 08:08:00,
2013-02-11 03:13:00,9.1,6.1,30.26,East,81,0.0,1.0,87,0.00,,,0.00,meteohub,2013-02-11 08:13:00,
2013-02-11 03:18:00,9.1,6.1,30.25,East,81,0.0,1.0,87,0.00,,,0.00,meteohub,2013-02-11 08:18:00,
2013-02-11 03:23:00,9.3,6.3,30.25,East,81,0.0,1.0,87,0.00,,,0.00,meteohub,2013-02-11 08:23:00,
2013-02-11 03:28:00,9.7,6.6,30.25,East,81,0.0,1.0,87,0.00,,,0.00,meteohub,2013-02-11 08:28:00,
2013-02-11 03:33:00,9.7,6.3,30.25,East,81,0.0,0.0,86,0.00,,,0.00,meteohub,2013-02-11 08:33:00,
2013-02-11 03:38:00,9.9,6.4,30.25,North,349,0.0,0.0,86,0.00,,,0.00,meteohub,2013-02-11 08:38:00,
2013-02-11 03:43:00,10.0,6.6,30.24,North,349,0.0,2.0,86,0.00,,,0.00,meteohub,2013-02-11 08:43:00,
2013-02-11 03:48:00,10.0,6.6,30.24,North,349,0.0,2.0,86,0.00,,,0.00,meteohub,2013-02-11 08:48:00,
2013-02-11 03:53:00,10.2,6.8,30.23,NNE,22,0.0,2.0,86,0.00,,,0.00,meteohub,2013-02-11 08:53:00,
2013-02-11 03:58:00,10.4,7.0,30.23,ENE,72,0.0,1.0,86,0.00,,,0.00,meteohub,2013-02-11 08:58:00,
2013-02-11 04:03:00,10.8,7.7,30.23,ESE,110,0.0,1.0,87,0.00,,,0.00,meteohub,2013-02-11 09:03:00,
2013-02-11 04:08:00,11.1,7.7,30.23,ESE,110,0.0,2.0,86,0.00,,,0.00,meteohub,2013-02-11 09:08:00,
2013-02-11 04:13:00,11.3,8.2,30.22,ESE,110,0.0,2.0,87,0.00,,,0.00,meteohub,2013-02-11 09:13:00,
2013-02-11 04:18:00,11.7,8.2,30.22,ESE,117,0.0,1.0,86,0.00,,,0.00,meteohub,2013-02-11 09:18:00,
2013-02-11 04:23:00,11.7,8.2,30.22,ESE,117,0.0,2.0,86,0.00,,,0.00,meteohub,2013-02-11 09:23:00,
2013-02-11 04:28:00,11.8,8.2,30.21,ESE,117,0.0,2.0,85,0.00,,,0.00,meteohub,2013-02-11 09:28:00,
2013-02-11 04:33:00,11.8,8.2,30.20,ESE,117,0.0,1.0,85,0.00,,,0.00,meteohub,2013-02-11 09:33:00,
2013-02-11 04:38:00,12.0,8.6,30.20,SE,127,2.0,0.0,86,0.00,,,0.00,meteohub,2013-02-11 09:38:00,
2013-02-11 04:44:00,12.4,9.0,30.21,South,169,0.0,1.0,86,0.00,,,0.00,meteohub,2013-02-11 09:44:00,
2013-02-11 04:49:00,12.6,8.6,30.21,North,349,0.0,3.0,84,0.00,,,0.00,meteohub,2013-02-11 09:49:00,
2013-02-11 04:54:00,12.6,9.0,30.20,ESE,118,1.0,3.0,85,0.00,,,0.00,meteohub,2013-02-11 09:54:00,
2013-02-11 04:59:00,12.7,9.1,30.20,ESE,118,0.0,3.0,85,0.00,,,0.00,meteohub,2013-02-11 09:59:00,
2013-02-11 05:04:00,12.9,9.3,30.20,SE,128,1.0,3.0,85,0.00,,,0.00,meteohub,2013-02-11 10:04:00,
2013-02-11 05:09:00,13.3,9.3,30.19,West,261,1.0,2.0,84,0.00,,,0.00,meteohub,2013-02-11 10:09:00,
2013-02-11 05:14:00,13.3,9.3,30.20,West,261,0.0,2.0,84,0.00,,,0.00,meteohub,2013-02-11 10:14:00,
2013-02-11 05:19:00,13.5,9.5,30.19,West,261,0.0,2.0,84,0.00,,,0.00,meteohub,2013-02-11 10:19:00,
2013-02-11 05:24:00,13.5,9.5,30.19,West,261,0.0,1.0,84,0.00,,,0.00,meteohub,2013-02-11 10:24:00,
2013-02-11 05:29:00,13.6,9.7,30.19,West,261,0.0,1.0,84,0.00,,,0.00,meteohub,2013-02-11 10:29:00,
2013-02-11 05:34:00,13.6,9.7,30.19,West,259,0.0,1.0,84,0.00,,,0.00,meteohub,2013-02-11 10:34:00,
2013-02-11 05:39:00,13.6,9.7,30.19,WNW,284,0.0,1.0,84,0.00,,,0.00,meteohub,2013-02-11 10:39:00,
2013-02-11 05:44:00,13.8,9.7,30.19,NW,309,0.0,1.0,83,0.00,,,0.00,meteohub,2013-02-11 10:44:00,
2013-02-11 05:49:00,14.0,10.0,30.18,NW,309,0.0,2.0,84,0.00,,,0.00,meteohub,2013-02-11 10:49:00,
2013-02-11 05:54:00,14.0,10.0,30.18,NW,309,0.0,2.0,84,0.00,,,0.00,meteohub,2013-02-11 10:54:00,
2013-02-11 05:59:00,14.2,10.2,30.18,NW,309,0.0,2.0,84,0.00,,,0.00,meteohub,2013-02-11 10:59:00,
2013-02-11 06:04:00,14.4,10.4,30.18,NW,309,0.0,2.0,84,0.00,,,0.00,meteohub,2013-02-11 11:04:00,
2013-02-11 06:09:00,14.5,10.9,30.17,SE,135,1.0,2.0,85,0.00,,,0.00,meteohub,2013-02-11 11:09:00,
2013-02-11 06:14:00,14.7,10.8,30.17,NW,318,4.0,4.0,84,0.00,,,0.00,meteohub,2013-02-11 11:14:00,
2013-02-11 06:19:00,14.9,10.9,30.16,ENE,70,1.0,3.0,84,0.00,,,0.00,meteohub,2013-02-11 11:19:00,
2013-02-11 06:24:00,15.1,10.9,30.16,NNW,336,1.0,4.0,83,0.00,,,0.00,meteohub,2013-02-11 11:24:00,
2013-02-11 06:30:00,15.3,11.3,30.16,NW,324,1.0,4.0,84,0.00,,,0.00,meteohub,2013-02-11 11:30:00,
2013-02-11 06:35:00,15.3,11.1,30.16,NW,324,0.0,4.0,83,0.00,,,0.00,meteohub,2013-02-11 11:35:00,
2013-02-11 06:40:00,15.4,11.5,30.15,ESE,102,0.0,3.0,84,0.00,,,0.00,meteohub,2013-02-11 11:40:00,
2013-02-11 06:45:00,15.4,11.5,30.15,NNW,330,1.0,3.0,84,0.00,,,0.00,meteohub,2013-02-11 11:45:00,
2013-02-11 06:50:00,15.6,11.7,30.14,NNW,328,0.0,2.0,84,0.00,,,0.00,meteohub,2013-02-11 11:50:00,
2013-02-11 06:55:00,15.8,12.0,30.14,ESE,113,2.0,2.0,85,0.00,,,0.00,meteohub,2013-02-11 11:55:00,
2013-02-11 07:00:00,16.2,12.4,30.14,ESE,122,2.0,2.0,85,0.00,,,0.00,meteohub,2013-02-11 12:00:00,
2013-02-11 07:05:00,16.2,12.4,30.14,SE,124,0.0,2.0,85,0.00,,,0.00,meteohub,2013-02-11 12:05:00,
2013-02-11 07:10:00,16.3,12.6,30.15,SE,124,0.0,2.0,85,0.00,,,0.00,meteohub,2013-02-11 12:10:00,
2013-02-11 07:15:00,16.5,12.7,30.14,SE,124,0.0,2.0,85,0.00,,,0.00,meteohub,2013-02-11 12:15:00,
2013-02-11 07:20:00,16.7,12.9,30.14,SE,124,0.0,0.0,85,0.00,,,0.00,meteohub,2013-02-11 12:20:00,
2013-02-11 07:25:00,16.9,13.1,30.14,SE,124,0.0,1.0,85,0.00,,,0.00,meteohub,2013-02-11 12:25:00,
2013-02-11 07:30:00,17.1,13.6,30.13,SE,124,0.0,1.0,86,0.00,,,0.00,meteohub,2013-02-11 12:30:00,
2013-02-11 07:35:00,17.2,13.5,30.12,SE,124,0.0,1.0,85,0.00,,,0.00,meteohub,2013-02-11 12:35:00,
2013-02-11 07:40:00,17.4,13.5,30.12,SE,124,0.0,1.0,84,0.00,,,0.00,meteohub,2013-02-11 12:40:00,
2013-02-11 07:45:00,17.6,13.8,30.12,SE,124,0.0,1.0,85,0.00,,,0.00,meteohub,2013-02-11 12:45:00,
2013-02-11 07:50:00,17.8,14.0,30.12,SE,124,0.0,0.0,85,0.00,,,0.00,meteohub,2013-02-11 12:50:00,
2013-02-11 07:55:00,18.0,14.0,30.12,SE,124,0.0,0.0,84,0.00,,,0.00,meteohub,2013-02-11 12:55:00,
2013-02-11 08:00:00,18.1,14.2,30.11,SE,124,0.0,0.0,84,0.00,,,0.00,meteohub,2013-02-11 13:00:00,
2013-02-11 08:06:00,18.3,14.4,30.11,SE,124,0.0,0.0,84,0.00,,,0.00,meteohub,2013-02-11 13:06:00,
2013-02-11 08:11:00,18.5,14.5,30.11,SE,126,0.0,0.0,84,0.00,,,0.00,meteohub,2013-02-11 13:11:00,
2013-02-11 08:16:00,18.9,14.5,30.11,SE,126,1.0,1.0,83,0.00,,,0.00,meteohub,2013-02-11 13:16:00,
2013-02-11 08:21:00,19.2,14.9,30.11,ESE,106,0.0,2.0,83,0.00,,,0.00,meteohub,2013-02-11 13:21:00,
2013-02-11 08:26:00,19.4,15.1,30.10,ESE,107,0.0,2.0,83,0.00,,,0.00,meteohub,2013-02-11 13:26:00,
2013-02-11 08:31:00,19.6,15.3,30.09,ESE,118,1.0,2.0,83,0.00,,,0.00,meteohub,2013-02-11 13:31:00,
2013-02-11 08:36:00,19.8,14.9,30.09,ESE,118,0.0,2.0,81,0.00,,,0.00,meteohub,2013-02-11 13:36:00,
2013-02-11 08:41:00,19.9,15.3,30.09,ESE,118,0.0,2.0,82,0.00,,,0.00,meteohub,2013-02-11 13:41:00,
2013-02-11 08:46:00,19.9,15.3,30.09,ESE,118,0.0,2.0,82,0.00,,,0.00,meteohub,2013-02-11 13:46:00,
2013-02-11 08:51:00,20.1,15.8,30.09,ENE,74,0.0,1.0,83,0.00,,,0.00,meteohub,2013-02-11 13:51:00,
2013-02-11 08:56:00,20.3,16.2,30.09,ENE,74,0.0,1.0,84,0.00,,,0.00,meteohub,2013-02-11 13:56:00,
2013-02-11 09:02:00,20.3,16.2,30.08,NNE,27,1.0,1.0,84,0.00,,,0.00,meteohub,2013-02-11 14:02:00,
2013-02-11 09:07:00,20.5,16.3,30.08,North,352,0.0,1.0,84,0.00,,,0.00,meteohub,2013-02-11 14:07:00,
2013-02-11 09:12:00,20.3,16.5,30.07,North,353,0.0,1.0,85,0.00,,,0.00,meteohub,2013-02-11 14:12:00,
2013-02-11 09:17:00,20.5,16.9,30.07,NE,37,0.0,1.0,86,0.00,,,0.00,meteohub,2013-02-11 14:17:00,
2013-02-11 09:22:00,20.5,17.2,30.06,East,96,0.0,1.0,87,0.00,,,0.00,meteohub,2013-02-11 14:22:00,
2013-02-11 09:27:00,20.7,17.6,30.06,East,96,0.0,1.0,88,0.00,,,0.00,meteohub,2013-02-11 14:27:00,
2013-02-11 09:32:00,20.7,17.6,30.05,East,96,0.0,1.0,88,0.00,,,0.00,meteohub,2013-02-11 14:32:00,
2013-02-11 09:37:00,20.8,17.8,30.05,East,96,0.0,1.0,88,0.00,,,0.00,meteohub,2013-02-11 14:37:00,
2013-02-11 09:42:00,20.8,18.1,30.04,East,96,0.0,0.0,89,0.00,,,0.00,meteohub,2013-02-11 14:42:00,
2013-02-11 09:47:00,21.0,18.3,30.04,East,96,1.0,0.0,89,0.00,,,0.00,meteohub,2013-02-11 14:47:00,
2013-02-11 09:52:00,21.2,18.5,30.04,East,96,0.0,1.0,89,0.00,,,0.00,meteohub,2013-02-11 14:52:00,
2013-02-11 09:57:00,21.4,18.7,30.03,East,84,0.0,1.0,89,0.00,,,0.00,meteohub,2013-02-11 14:57:00,
2013-02-11 10:02:00,21.4,18.9,30.02,North,359,0.0,1.0,90,0.00,,,0.00,meteohub,2013-02-11 15:02:00,
2013-02-11 10:07:00,21.6,19.0,30.02,NNW,338,0.0,2.0,90,0.00,,,0.00,meteohub,2013-02-11 15:07:00,
2013-02-11 10:12:00,21.6,19.0,30.02,NNW,338,0.0,2.0,90,0.00,,,0.00,meteohub,2013-02-11 15:12:00,
2013-02-11 10:17:00,21.6,19.0,30.01,NNW,339,0.0,2.0,90,0.00,,,0.00,meteohub,2013-02-11 15:17:00,
2013-02-11 10:22:00,21.7,19.2,30.00,NE,37,0.0,2.0,90,0.00,,,0.00,meteohub,2013-02-11 15:22:00,
2013-02-11 10:27:00,21.9,19.4,30.00,NNE,27,0.0,1.0,90,0.00,,,0.00,meteohub,2013-02-11 15:27:00,
2013-02-11 10:32:00,21.9,19.4,29.99,NNW,344,0.0,2.0,90,0.00,,,0.00,meteohub,2013-02-11 15:32:00,
2013-02-11 10:37:00,21.9,19.4,29.99,NNW,338,0.0,2.0,90,0.00,,,0.00,meteohub,2013-02-11 15:37:00,
2013-02-11 10:42:00,22.1,19.6,29.99,NNW,335,1.0,2.0,90,0.00,,,0.00,meteohub,2013-02-11 15:42:00,
2013-02-11 10:47:00,22.3,20.1,29.99,NW,326,2.0,2.0,91,0.00,,,0.00,meteohub,2013-02-11 15:47:00,
2013-02-11 10:52:00,22.5,20.3,29.98,NW,325,2.0,3.0,91,0.00,,,0.00,meteohub,2013-02-11 15:52:00,
2013-02-11 10:57:00,22.6,20.5,29.98,NNE,22,0.0,3.0,91,0.00,,,0.00,meteohub,2013-02-11 15:57:00,
2013-02-11 11:02:00,22.8,20.7,29.97,North,350,1.0,3.0,91,0.00,,,0.00,meteohub,2013-02-11 16:02:00,
2013-02-11 11:07:00,23.2,21.2,29.97,ESE,119,1.0,3.0,92,0.00,,,0.00,meteohub,2013-02-11 16:07:00,
2013-02-11 11:12:00,23.4,21.2,29.96,ESE,119,0.0,4.0,91,0.00,,,0.00,meteohub,2013-02-11 16:12:00,
2013-02-11 11:17:00,23.5,21.6,29.96,ESE,114,0.0,4.0,92,0.00,,,0.00,meteohub,2013-02-11 16:17:00,
2013-02-11 11:22:00,23.9,21.9,29.95,ESE,114,0.0,2.0,92,0.00,,,0.00,meteohub,2013-02-11 16:22:00,
2013-02-11 11:27:00,24.1,22.1,29.94,ESE,114,0.0,1.0,92,0.00,,,0.00,meteohub,2013-02-11 16:27:00,
2013-02-11 11:32:00,24.3,22.3,29.94,East,90,0.0,1.0,92,0.00,,,0.00,meteohub,2013-02-11 16:32:00,
2013-02-11 11:37:00,24.6,22.6,29.94,East,90,0.0,2.0,92,0.00,,,0.00,meteohub,2013-02-11 16:37:00,
2013-02-11 11:42:00,25.2,23.2,29.93,NNW,336,0.0,2.0,92,0.00,,,0.00,meteohub,2013-02-11 16:42:00,
2013-02-11 11:47:00,25.9,24.1,29.92,NNW,343,1.0,3.0,93,0.00,,,0.00,meteohub,2013-02-11 16:47:00,
2013-02-11 11:52:00,26.2,24.3,29.92,NNW,339,0.0,5.0,92,0.00,,,0.00,meteohub,2013-02-11 16:52:00,
2013-02-11 11:57:00,26.4,24.4,29.91,NNW,339,0.0,5.0,92,0.00,,,0.00,meteohub,2013-02-11 16:57:00,
2013-02-11 12:02:00,26.8,25.0,29.91,NNE,19,0.0,5.0,93,0.00,,,0.00,meteohub,2013-02-11 17:02:00,
2013-02-11 12:07:00,27.1,25.2,29.91,NNW,328,2.0,6.0,92,0.00,,,0.00,meteohub,2013-02-11 17:07:00,
2013-02-11 12:12:00,27.1,25.2,29.91,NNW,328,1.0,6.0,92,0.00,,,0.00,meteohub,2013-02-11 17:12:00,
2013-02-11 12:17:00,27.3,25.3,29.90,NW,325,0.0,6.0,92,0.00,,,0.00,meteohub,2013-02-11 17:17:00,
2013-02-11 12:22:00,27.5,25.7,29.89,NW,305,2.0,4.0,93,0.00,,,0.00,meteohub,2013-02-11 17:22:00,
2013-02-11 12:27:00,27.7,25.7,29.89,NW,318,3.0,4.0,92,0.00,,,0.00,meteohub,2013-02-11 17:27:00,
2013-02-11 12:32:00,27.7,25.7,29.89,NW,324,1.0,4.0,92,0.00,,,0.00,meteohub,2013-02-11 17:32:00,
2013-02-11 12:37:00,27.9,25.9,29.89,NW,322,0.0,4.0,92,0.00,,,0.00,meteohub,2013-02-11 17:37:00,
2013-02-11 12:42:00,27.9,25.9,29.88,NNW,330,0.0,4.0,92,0.00,,,0.00,meteohub,2013-02-11 17:42:00,
2013-02-11 12:47:00,28.0,26.1,29.88,NNW,332,1.0,3.0,92,0.00,,,0.00,meteohub,2013-02-11 17:47:00,
2013-02-11 12:52:00,28.0,26.1,29.88,NW,325,0.0,3.0,92,0.00,,,0.00,meteohub,2013-02-11 17:52:00,
2013-02-11 12:57:00,28.0,26.2,29.86,NW,325,0.0,2.0,93,0.00,,,0.00,meteohub,2013-02-11 17:57:00,
2013-02-11 13:02:00,28.4,26.6,29.86,WNW,286,1.0,2.0,93,0.00,,,0.00,meteohub,2013-02-11 18:02:00,
2013-02-11 13:07:00,28.6,26.8,29.85,WNW,300,2.0,2.0,93,0.00,,,0.00,meteohub,2013-02-11 18:07:00,
2013-02-11 13:12:00,28.8,27.0,29.85,WNW,300,0.0,3.0,93,0.00,,,0.00,meteohub,2013-02-11 18:12:00,
2013-02-11 13:17:00,28.9,27.1,29.84,WNW,300,0.0,3.0,93,0.00,,,0.00,meteohub,2013-02-11 18:17:00,
2013-02-11 13:22:00,29.1,27.3,29.84,WNW,300,0.0,3.0,93,0.00,,,0.00,meteohub,2013-02-11 18:22:00,
2013-02-11 13:27:00,29.1,27.3,29.84,NW,319,0.0,2.0,93,0.00,,,0.00,meteohub,2013-02-11 18:27:00,
2013-02-11 13:32:00,29.3,27.5,29.83,NW,319,0.0,2.0,93,0.00,,,0.00,meteohub,2013-02-11 18:32:00,
2013-02-11 13:37:00,29.3,27.5,29.83,NW,319,0.0,1.0,93,0.00,,,0.00,meteohub,2013-02-11 18:37:00,
2013-02-11 13:42:00,29.3,27.5,29.83,NW,322,0.0,1.0,93,0.00,,,0.00,meteohub,2013-02-11 18:42:00,
2013-02-11 13:47:00,29.1,27.3,29.83,NW,322,0.0,2.0,93,0.00,,,0.00,meteohub,2013-02-11 18:47:00,
2013-02-11 13:52:00,29.1,27.3,29.83,East,101,0.0,2.0,93,0.00,,,0.00,meteohub,2013-02-11 18:52:00,
2013-02-11 13:57:00,29.3,27.5,29.83,East,101,0.0,2.0,93,0.00,,,0.00,meteohub,2013-02-11 18:57:00,
2013-02-11 14:02:00,29.3,27.5,29.83,East,101,0.0,1.0,93,0.00,,,0.00,meteohub,2013-02-11 19:02:00,
2013-02-11 14:07:00,29.5,27.7,29.82,East,97,0.0,1.0,93,0.00,,,0.00,meteohub,2013-02-11 19:07:00,
2013-02-11 14:12:00,29.5,27.7,29.81,East,97,0.0,1.0,93,0.00,,,0.00,meteohub,2013-02-11 19:12:00,
2013-02-11 14:17:00,29.7,27.9,29.81,East,97,0.0,1.0,93,0.00,,,0.00,meteohub,2013-02-11 19:17:00,
2013-02-11 14:22:00,29.8,28.0,29.80,East,97,0.0,0.0,93,0.00,,,0.00,meteohub,2013-02-11 19:22:00,
2013-02-11 14:27:00,29.8,28.0,29.80,NNE,22,0.0,1.0,93,0.00,,,0.00,meteohub,2013-02-11 19:27:00,
2013-02-11 14:32:00,30.0,28.2,29.79,NNW,334,1.0,1.0,93,0.00,,,0.00,meteohub,2013-02-11 19:32:00,
2013-02-11 14:37:00,30.2,28.4,29.78,ESE,110,0.0,2.0,93,0.00,,,0.00,meteohub,2013-02-11 19:37:00,
2013-02-11 14:42:00,30.4,28.6,29.78,ESE,110,0.0,2.0,93,0.00,,,0.00,meteohub,2013-02-11 19:42:00,
2013-02-11 14:47:00,30.7,29.3,29.78,ESE,110,0.0,2.0,94,0.00,,,0.00,meteohub,2013-02-11 19:47:00,
2013-02-11 14:52:00,31.3,29.8,29.78,ESE,112,0.0,2.0,94,0.00,,,0.00,meteohub,2013-02-11 19:52:00,
2013-02-11 14:57:00,31.5,29.7,29.77,North,359,0.0,2.0,93,0.00,,,0.00,meteohub,2013-02-11 19:57:00,
2013-02-11 15:02:00,31.5,29.7,29.78,North,359,1.0,2.0,93,0.00,,,0.00,meteohub,2013-02-11 20:02:00,
2013-02-11 15:07:00,31.5,29.7,29.78,NW,320,1.0,3.0,93,0.00,,,0.00,meteohub,2013-02-11 20:07:00,
2013-02-11 15:12:00,31.5,29.7,29.77,NNW,346,1.0,3.0,93,0.00,,,0.00,meteohub,2013-02-11 20:12:00,
2013-02-11 15:17:00,31.6,29.8,29.77,NNW,336,0.0,3.0,93,0.00,,,0.00,meteohub,2013-02-11 20:17:00,
2013-02-11 15:22:00,31.8,30.0,29.76,NNW,339,1.0,3.0,93,0.00,,,0.00,meteohub,2013-02-11 20:22:00,
2013-02-11 15:27:00,31.8,30.0,29.76,NNW,346,0.0,2.0,93,0.00,,,0.00,meteohub,2013-02-11 20:27:00,
2013-02-11 15:32:00,31.8,30.0,29.75,North,5,1.0,2.0,93,0.00,,,0.00,meteohub,2013-02-11 20:32:00,
2013-02-11 15:37:00,31.8,30.0,29.75,NNW,343,1.0,2.0,93,0.00,,,0.00,meteohub,2013-02-11 20:37:00,
2013-02-11 15:42:00,32.0,30.2,29.75,NNW,343,0.0,2.0,93,0.00,,,0.00,meteohub,2013-02-11 20:42:00,
2013-02-11 15:47:00,32.2,30.4,29.75,NNW,343,0.0,2.0,93,0.00,,,0.00,meteohub,2013-02-11 20:47:00,
2013-02-11 15:52:00,32.2,30.4,29.74,NNW,343,0.0,2.0,93,0.00,,,0.00,meteohub,2013-02-11 20:52:00,
2013-02-11 15:57:00,32.4,30.6,29.74,NNW,343,0.0,1.0,93,0.00,,,0.00,meteohub,2013-02-11 20:57:00,
2013-02-11 16:02:00,32.4,30.6,29.74,NNW,343,0.0,0.0,93,0.00,,,0.00,meteohub,2013-02-11 21:02:00,
2013-02-11 16:07:00,32.4,30.4,29.74,NNW,343,0.0,1.0,92,0.00,,,0.00,meteohub,2013-02-11 21:07:00,
2013-02-11 16:12:00,32.4,30.6,29.74,ENE,71,0.0,1.0,93,0.00,,,0.00,meteohub,2013-02-11 21:12:00,
2013-02-11 16:17:00,32.4,30.4,29.74,ENE,71,0.0,1.0,92,0.00,,,0.00,meteohub,2013-02-11 21:17:00,
2013-02-11 16:22:00,32.4,30.4,29.73,ENE,71,0.0,1.0,92,0.00,,,0.00,meteohub,2013-02-11 21:22:00,
2013-02-11 16:27:00,32.2,30.2,29.74,East,99,1.0,1.0,92,0.00,,,0.00,meteohub,2013-02-11 21:27:00,
2013-02-11 16:32:00,32.2,30.2,29.74,SE,135,1.0,1.0,92,0.00,,,0.00,meteohub,2013-02-11 21:32:00,
2013-02-11 16:37:00,32.0,30.0,29.74,ESE,123,0.0,2.0,92,0.00,,,0.00,meteohub,2013-02-11 21:37:00,
2013-02-11 16:42:00,31.8,30.0,29.73,ESE,123,0.0,2.0,93,0.00,,,0.00,meteohub,2013-02-11 21:42:00,
2013-02-11 16:47:00,31.8,30.0,29.73,ESE,123,0.0,2.0,93,0.00,,,0.00,meteohub,2013-02-11 21:47:00,
2013-02-11 16:52:00,31.6,29.8,29.73,ESE,122,1.0,2.0,93,0.00,,,0.00,meteohub,2013-02-11 21:52:00,
2013-02-11 16:57:00,31.6,29.8,29.72,ESE,122,0.0,2.0,93,0.00,,,0.00,meteohub,2013-02-11 21:57:00,
2013-02-11 17:02:00,31.6,29.8,29.71,ESE,122,0.0,2.0,93,0.00,,,0.00,meteohub,2013-02-11 22:02:00,
2013-02-11 17:07:00,31.6,29.8,29.72,ESE,122,0.0,1.0,93,0.00,,,0.00,meteohub,2013-02-11 22:07:00,
2013-02-11 17:12:00,31.5,29.7,29.72,ESE,122,0.0,0.0,93,0.00,,,0.00,meteohub,2013-02-11 22:12:00,
2013-02-11 17:17:00,31.5,29.7,29.71,ESE,122,0.0,0.0,93,0.00,,,0.00,meteohub,2013-02-11 22:17:00,
2013-02-11 17:22:00,31.3,29.5,29.71,ESE,122,0.0,1.0,93,0.00,,,0.00,meteohub,2013-02-11 22:22:00,
2013-02-11 17:27:00,31.3,29.5,29.70,ESE,122,0.0,1.0,93,0.00,,,0.00,meteohub,2013-02-11 22:27:00,
2013-02-11 17:32:00,31.3,29.5,29.70,ESE,122,0.0,1.0,93,0.00,,,0.00,meteohub,2013-02-11 22:32:00,
2013-02-11 17:37:00,31.1,29.3,29.70,ESE,122,0.0,0.0,93,0.00,,,0.00,meteohub,2013-02-11 22:37:00,
2013-02-11 17:42:00,30.9,29.1,29.70,ESE,122,0.0,0.0,93,0.00,,,0.00,meteohub,2013-02-11 22:42:00,
2013-02-11 17:47:00,30.9,29.5,29.70,ESE,122,0.0,0.0,94,0.00,,,0.00,meteohub,2013-02-11 22:47:00,
2013-02-11 17:52:00,30.7,29.3,29.70,ESE,122,0.0,0.0,94,0.00,,,0.00,meteohub,2013-02-11 22:52:00,
2013-02-11 17:57:00,30.7,29.3,29.69,ESE,122,0.0,0.0,94,0.00,,,0.00,meteohub,2013-02-11 22:57:00,
2013-02-11 18:02:00,30.7,29.3,29.69,ESE,122,0.0,0.0,94,0.00,,,0.00,meteohub,2013-02-11 23:02:00,
2013-02-11 18:07:00,30.7,29.3,29.70,ESE,122,0.0,0.0,94,0.00,,,0.00,meteohub,2013-02-11 23:07:00,
2013-02-11 18:12:00,30.7,29.3,29.70,NNE,32,0.0,0.0,94,0.00,,,0.00,meteohub,2013-02-11 23:12:00,
2013-02-11 18:17:00,30.7,29.5,29.70,NNE,32,0.0,1.0,95,0.00,,,0.00,meteohub,2013-02-11 23:17:00,
2013-02-11 18:22:00,30.7,29.3,29.70,NNE,32,0.0,1.0,94,0.00,,,0.00,meteohub,2013-02-11 23:22:00,
2013-02-11 18:27:00,30.6,29.1,29.70,NNE,32,0.0,1.0,94,0.00,,,0.00,meteohub,2013-02-11 23:27:00,
2013-02-11 18:32:00,30.6,29.1,29.70,NNE,32,0.0,0.0,94,0.00,,,0.00,meteohub,2013-02-11 23:32:00,
2013-02-11 18:37:00,30.6,29.3,29.69,NNE,32,0.0,0.0,95,0.00,,,0.00,meteohub,2013-02-11 23:37:00,
2013-02-11 18:42:00,30.6,29.3,29.69,NNE,32,0.0,0.0,95,0.00,,,0.00,meteohub,2013-02-11 23:42:00,
2013-02-11 18:47:00,30.6,29.3,29.69,NNE,32,0.0,0.0,95,0.00,,,0.00,meteohub,2013-02-11 23:47:00,
2013-02-11 18:52:00,30.4,29.1,29.69,NE,41,0.0,0.0,95,0.00,,,0.00,meteohub,2013-02-11 23:52:00,
2013-02-11 18:57:00,30.4,29.1,29.68,NE,41,0.0,0.0,95,0.00,,,0.00,meteohub,2013-02-11 23:57:00,
2013-02-11 19:02:00,30.2,28.9,29.68,NE,41,0.0,0.0,95,0.00,,,0.00,meteohub,2013-02-12 00:02:00,
2013-02-11 19:07:00,30.2,28.9,29.68,NE,41,0.0,0.0,95,0.00,,,0.00,meteohub,2013-02-12 00:07:00,
2013-02-11 19:12:00,30.2,28.9,29.68,NE,41,0.0,0.0,95,0.00,,,0.00,meteohub,2013-02-12 00:12:00,
2013-02-11 19:17:00,30.2,28.9,29.68,NE,41,0.0,0.0,95,0.00,,,0.00,meteohub,2013-02-12 00:17:00,
2013-02-11 19:22:00,30.2,28.9,29.68,NE,41,0.0,0.0,95,0.00,,,0.00,meteohub,2013-02-12 00:22:00,
2013-02-11 19:27:00,30.4,29.1,29.68,NE,41,0.0,0.0,95,0.00,,,0.00,meteohub,2013-02-12 00:27:00,
2013-02-11 19:32:00,30.2,28.9,29.68,NE,41,0.0,0.0,95,0.00,,,0.00,meteohub,2013-02-12 00:32:00,
2013-02-11 19:37:00,30.2,28.9,29.68,NE,41,0.0,0.0,95,0.00,,,0.00,meteohub,2013-02-12 00:37:00,
2013-02-11 19:42:00,30.0,28.8,29.67,NE,41,0.0,0.0,95,0.00,,,0.00,meteohub,2013-02-12 00:42:00,
2013-02-11 19:47:00,30.0,28.8,29.67,NE,41,0.0,0.0,95,0.00,,,0.00,meteohub,2013-02-12 00:47:00,
2013-02-11 19:52:00,30.0,28.8,29.67,NE,41,0.0,0.0,95,0.00,,,0.00,meteohub,2013-02-12 00:52:00,
2013-02-11 19:57:00,30.0,28.8,29.68,NE,41,0.0,0.0,95,0.00,,,0.00,meteohub,2013-02-12 00:57:00,
2013-02-11 20:02:00,30.0,28.8,29.68,NE,41,0.0,0.0,95,0.00,,,0.00,meteohub,2013-02-12 01:02:00,
2013-02-11 20:07:00,30.0,28.8,29.68,NE,41,0.0,0.0,95,0.00,,,0.00,meteohub,2013-02-12 01:07:00,
2013-02-11 20:12:00,30.0,28.8,29.68,NE,41,0.0,0.0,95,0.00,,,0.00,meteohub,2013-02-12 01:12:00,
2013-02-11 20:17:00,30.0,28.8,29.68,NE,41,0.0,0.0,95,0.00,,,0.00,meteohub,2013-02-12 01:17:00,
2013-02-11 20:22:00,30.0,28.8,29.68,NE,41,0.0,0.0,95,0.00,,,0.00,meteohub,2013-02-12 01:22:00,
2013-02-11 20:27:00,30.0,28.8,29.68,NE,41,0.0,0.0,95,0.00,,,0.00,meteohub,2013-02-12 01:27:00,
2013-02-11 20:32:00,30.0,28.9,29.68,NE,41,0.0,0.0,96,0.00,,,0.00,meteohub,2013-02-12 01:32:00,
2013-02-11 20:37:00,30.2,29.1,29.68,NE,41,0.0,0.0,96,0.00,,,0.00,meteohub,2013-02-12 01:37:00,
2013-02-11 20:42:00,30.4,29.3,29.68,NE,41,0.0,0.0,96,0.00,,,0.00,meteohub,2013-02-12 01:42:00,
2013-02-11 20:47:00,30.6,29.5,29.68,NE,41,0.0,1.0,96,0.00,,,0.00,meteohub,2013-02-12 01:47:00,
2013-02-11 20:52:00,30.6,29.5,29.68,NE,41,0.0,1.0,96,0.00,,,0.00,meteohub,2013-02-12 01:52:00,
2013-02-11 20:57:00,30.6,29.5,29.68,NE,41,0.0,1.0,96,0.00,,,0.00,meteohub,2013-02-12 01:57:00,
2013-02-11 21:02:00,30.7,29.7,29.68,ENE,72,0.0,1.0,96,0.00,,,0.00,meteohub,2013-02-12 02:02:00,
2013-02-11 21:07:00,30.7,29.7,29.68,ENE,70,0.0,2.0,96,0.00,,,0.00,meteohub,2013-02-12 02:07:00,
2013-02-11 21:12:00,30.7,29.7,29.68,ENE,70,0.0,2.0,96,0.00,,,0.00,meteohub,2013-02-12 02:12:00,
2013-02-11 21:17:00,30.7,29.7,29.67,ESE,113,0.0,2.0,96,0.00,,,0.00,meteohub,2013-02-12 02:17:00,
2013-02-11 21:22:00,30.9,29.8,29.66,ESE,113,0.0,2.0,96,0.00,,,0.00,meteohub,2013-02-12 02:22:00,
2013-02-11 21:27:00,30.9,29.8,29.67,NNW,329,0.0,2.0,96,0.00,,,0.00,meteohub,2013-02-12 02:27:00,
2013-02-11 21:32:00,31.1,30.0,29.67,SE,127,1.0,3.0,96,0.00,,,0.00,meteohub,2013-02-12 02:32:00,
2013-02-11 21:37:00,31.3,30.2,29.68,SE,130,2.0,3.0,96,0.00,,,0.00,meteohub,2013-02-12 02:37:00,
2013-02-11 21:42:00,31.5,30.4,29.68,SSE,147,3.0,3.0,96,0.00,,,0.00,meteohub,2013-02-12 02:42:00,
2013-02-11 21:47:00,31.6,30.6,29.68,NNW,339,0.0,5.0,96,0.00,,,0.00,meteohub,2013-02-12 02:47:00,
2013-02-11 21:52:00,32.5,31.5,29.68,SSW,197,0.0,5.0,96,0.00,,,0.00,meteohub,2013-02-12 02:52:00,
2013-02-11 21:57:00,32.7,32.0,29.67,SE,126,1.0,5.0,97,0.00,,,0.00,meteohub,2013-02-12 02:57:00,
2013-02-11 22:02:00,33.6,32.9,29.67,NNW,348,1.0,5.0,97,0.00,,,0.00,meteohub,2013-02-12 03:02:00,
2013-02-11 22:07:00,34.5,33.8,29.68,SSE,150,3.0,5.0,97,0.00,,,0.00,meteohub,2013-02-12 03:07:00,
2013-02-11 22:12:00,35.2,34.5,29.67,NNW,328,0.0,5.0,97,0.00,,,0.00,meteohub,2013-02-12 03:12:00,
2013-02-11 22:17:00,35.2,34.5,29.67,NNW,328,0.0,5.0,97,0.00,,,0.00,meteohub,2013-02-12 03:17:00,
2013-02-11 22:22:00,35.1,34.3,29.67,NNW,332,4.0,5.0,97,0.00,,,0.00,meteohub,2013-02-12 03:22:00,
2013-02-11 22:27:00,35.4,34.7,29.66,NW,313,2.0,5.0,97,0.00,,,0.00,meteohub,2013-02-12 03:27:00,
2013-02-11 22:32:00,35.2,34.5,29.66,NW,320,0.0,5.0,97,0.00,,,0.00,meteohub,2013-02-12 03:32:00,
2013-02-11 22:37:00,35.2,34.2,29.65,NW,313,1.0,5.0,96,0.00,,,0.00,meteohub,2013-02-12 03:37:00,
2013-02-11 22:42:00,35.1,33.8,29.65,NW,324,0.0,4.0,95,0.00,,,0.00,meteohub,2013-02-12 03:42:00,
2013-02-11 22:47:00,34.9,33.6,29.65,NW,324,0.0,4.0,95,0.00,,,0.00,meteohub,2013-02-12 03:47:00,
2013-02-11 22:52:00,34.5,33.3,29.65,NW,314,0.0,4.0,95,0.00,,,0.00,meteohub,2013-02-12 03:52:00,
2013-02-11 22:57:00,34.5,33.3,29.64,ESE,115,0.0,5.0,95,0.00,,,0.00,meteohub,2013-02-12 03:57:00,
2013-02-11 23:02:00,34.5,33.3,29.65,WNW,300,0.0,5.0,95,0.00,,,0.00,meteohub,2013-02-12 04:02:00,
2013-02-11 23:07:00,34.5,33.3,29.64,ESE,107,3.0,4.0,95,0.00,,,0.00,meteohub,2013-02-12 04:07:00,
2013-02-11 23:12:00,34.9,33.6,29.64,NE,54,1.0,5.0,95,0.00,,,0.00,meteohub,2013-02-12 04:12:00,
2013-02-11 23:17:00,34.9,33.3,29.64,South,176,1.0,5.0,94,0.00,,,0.00,meteohub,2013-02-12 04:17:00,
2013-02-11 23:22:00,34.9,33.3,29.64,WNW,291,0.0,5.0,94,0.00,,,0.00,meteohub,2013-02-12 04:22:00,
2013-02-11 23:27:00,34.9,33.3,29.64,WNW,297,8.0,8.0,94,0.00,,,0.00,meteohub,2013-02-12 04:27:00,
2013-02-11 23:32:00,35.4,32.7,29.64,NW,318,2.0,15.0,90,0.00,,,0.00,meteohub,2013-02-12 04:32:00,
2013-02-11 23:37:00,35.6,32.7,29.64,West,274,2.0,15.0,89,0.00,,,0.00,meteohub,2013-02-12 04:37:00,
2013-02-11 23:42:00,35.6,32.7,29.64,NW,310,3.0,15.0,89,0.00,,,0.00,meteohub,2013-02-12 04:42:00,
2013-02-11 23:47:00,35.8,32.4,29.64,NNW,329,3.0,5.0,87,0.00,,,0.00,meteohub,2013-02-12 04:47:00,
2013-02-11 23:52:00,35.8,32.4,29.63,NW,320,4.0,12.0,87,0.00,,,0.00,meteohub,2013-02-12 04:52:00,
2013-02-11 23:57:00,35.8,32.4,29.63,NNW,334,3.0,12.0,87,0.00,,,0.00,meteohub,2013-02-12 04:57:00,